createdAt,value
2023-01-19T00:33:24.985Z,14.80
2023-01-19T01:07:45.903Z,13.00
2023-01-19T01:12:05.999Z,11.60
2023-01-19T01:16:16.646Z,12.00
2023-01-19T01:20:46.225Z,11.50
2023-01-19T01:25:03.886Z,10.90
2023-01-19T01:28:41.925Z,11.70
2023-01-19T01:32:46.830Z,9.80
2023-01-19T02:02:28.659Z,12.30
2023-01-19T02:06:42.796Z,11.70
2023-01-19T02:11:10.636Z,12.10
2023-01-19T02:15:35.065Z,11.10
2023-01-19T02:19:59.220Z,12.30
2023-01-19T02:23:54.722Z,10.80
2023-01-19T03:05:38.768Z,10.10
2023-01-19T03:10:10.687Z,8.80
2023-01-19T03:14:19.108Z,8.30
2023-01-19T03:18:38.202Z,9.20
2023-01-19T03:23:02.371Z,7.90
2023-01-19T03:27:33.912Z,8.80
2023-01-19T03:57:02.722Z,8.90
2023-01-19T04:01:03.562Z,9.30
2023-01-19T04:05:17.614Z,9.60
2023-01-19T04:09:47.703Z,9.00
2023-01-19T04:13:58.498Z,9.80
2023-01-19T04:44:28.227Z,9.90
2023-01-19T05:10:18.953Z,13.40
2023-01-19T05:14:48.220Z,13.00
2023-01-19T05:19:12.672Z,13.70
2023-01-19T05:23:32.019Z,12.50
2023-01-19T05:27:46.776Z,13.10
2023-01-19T05:32:07.567Z,13.60
2023-01-19T05:36:12.920Z,12.50
2023-01-19T05:40:17.689Z,13.70
2023-01-19T05:44:28.872Z,14.40
2023-01-19T06:05:23.309Z,14.20
2023-01-19T06:09:44.441Z,12.30
2023-01-19T06:14:09.477Z,12.00
2023-01-19T06:18:18.685Z,12.40
2023-01-19T06:22:52.765Z,12.70
2023-01-19T06:36:05.023Z,12.40
2023-01-19T06:40:33.851Z,12.70
2023-01-19T06:44:37.321Z,10.80
2023-01-19T06:48:39.032Z,10.20
2023-01-19T06:56:19.794Z,11.10
2023-01-19T07:00:47.164Z,10.80
2023-01-19T07:04:26.675Z,13.20
2023-01-19T07:08:48.143Z,12.50
2023-01-19T07:17:02.400Z,12.20
2023-01-19T07:20:57.024Z,13.20
2023-01-19T07:25:24.962Z,12.30
2023-01-19T07:29:46.318Z,12.50
2023-01-19T07:51:45.457Z,15.80
2023-01-19T07:56:14.126Z,12.70
2023-01-19T08:00:35.523Z,13.70
2023-01-19T08:04:56.715Z,12.10
2023-01-19T08:22:09.193Z,14.50
2023-01-19T08:26:35.071Z,13.00
2023-01-19T08:30:57.976Z,12.00
2023-01-19T08:35:09.858Z,13.60
2023-01-19T08:39:29.027Z,13.60
2023-01-19T08:44:00.973Z,12.70
2023-01-19T09:05:09.295Z,15.80
2023-01-19T09:09:20.802Z,14.90
2023-01-19T09:12:52.221Z,14.60
2023-01-19T09:17:21.469Z,15.60
2023-01-19T09:21:49.911Z,13.30
2023-01-19T09:25:51.690Z,14.80
2023-01-19T09:30:14.677Z,14.40
2023-01-19T09:55:49.051Z,15.30
2023-01-19T09:59:43.994Z,14.50
2023-01-19T10:03:40.777Z,13.10
2023-01-19T10:08:03.744Z,13.70
2023-01-19T10:12:40.360Z,14.50
2023-01-19T10:16:55.544Z,15.50
2023-01-19T10:21:20.118Z,15.70
2023-01-19T11:29:20.170Z,13.80
2023-01-19T11:32:30.859Z,15.40
2023-01-19T11:36:45.290Z,14.40
2023-01-19T11:41:08.361Z,13.10
2023-01-19T11:45:10.678Z,12.90
2023-01-19T11:49:02.243Z,13.60
2023-01-19T11:53:17.112Z,13.10
2023-01-19T11:57:19.614Z,15.10
2023-01-19T12:01:31.067Z,12.40
2023-01-19T12:05:34.632Z,13.90
2023-01-19T12:09:46.104Z,14.50
2023-01-19T12:13:55.742Z,14.60
2023-01-19T12:17:43.313Z,12.50
2023-01-19T12:25:11.906Z,12.60
2023-01-19T12:28:29.865Z,12.30
2023-01-19T12:31:51.610Z,12.90
2023-01-19T12:35:48.426Z,12.60
2023-01-19T12:39:45.264Z,12.30
2023-01-19T12:43:59.505Z,13.80
2023-01-19T12:48:28.463Z,12.10
2023-01-19T12:52:50.276Z,12.20
2023-01-19T12:57:17.827Z,13.10
2023-01-19T13:23:50.362Z,11.50
2023-01-19T13:28:19.390Z,11.40
2023-01-19T13:32:39.010Z,12.10
2023-01-19T13:36:51.230Z,11.50
2023-01-19T14:11:07.631Z,11.50
2023-01-19T14:15:37.347Z,9.40
2023-01-19T14:19:37.939Z,12.10
2023-01-19T14:37:26.552Z,10.30
2023-01-19T14:41:45.818Z,10.20
2023-01-19T14:46:17.217Z,10.20
2023-01-19T14:50:17.249Z,10.00
2023-01-19T14:54:27.135Z,10.60
2023-01-19T15:20:41.019Z,11.40
2023-01-19T15:24:58.792Z,11.80
2023-01-19T15:47:03.887Z,13.10
2023-01-19T15:51:15.862Z,12.40
2023-01-19T15:55:49.982Z,10.70
2023-01-19T16:08:46.632Z,14.40
2023-01-19T16:13:07.059Z,11.90
2023-01-19T16:30:07.182Z,20.10
2023-01-19T16:34:36.039Z,16.60
2023-01-19T16:39:06.234Z,14.90
2023-01-19T16:43:37.912Z,13.40
2023-01-19T16:48:07.777Z,12.90
2023-01-19T17:09:51.489Z,15.20
2023-01-19T17:14:23.457Z,13.50
2023-01-19T17:26:52.457Z,17.20
2023-01-19T17:31:22.134Z,14.60
2023-01-19T17:35:51.635Z,15.60
2023-01-19T17:40:14.538Z,14.50
2023-01-19T18:49:53.061Z,18.10
2023-01-19T18:53:57.106Z,15.40
2023-01-19T18:58:17.650Z,18.40
2023-01-19T19:02:46.558Z,16.90
2023-01-19T19:32:48.993Z,16.70
2023-01-19T19:36:57.377Z,16.00
2023-01-19T19:41:25.002Z,17.50
2023-01-19T19:45:55.821Z,14.80
2023-01-19T19:50:25.456Z,14.90
2023-01-19T20:16:14.358Z,16.80
2023-01-19T20:20:43.147Z,16.10
2023-01-19T20:25:15.666Z,14.60
2023-01-19T20:38:11.656Z,18.70
2023-01-19T20:42:40.562Z,17.80
2023-01-19T20:46:30.114Z,19.70
2023-01-19T20:50:46.291Z,18.70
2023-01-19T20:55:16.021Z,17.30
2023-01-19T20:59:34.089Z,18.50
2023-01-19T21:03:55.509Z,17.20
2023-01-19T21:30:10.173Z,19.90
2023-01-19T21:34:39.152Z,16.70
2023-01-19T21:39:08.601Z,16.90
2023-01-19T21:56:31.251Z,19.20
2023-01-19T22:01:00.152Z,17.50
2023-01-19T22:22:53.753Z,19.30
2023-01-19T22:27:23.507Z,16.30
2023-01-19T22:44:49.251Z,17.90
2023-01-19T22:49:17.927Z,18.10
2023-01-19T22:53:46.856Z,17.70
2023-01-19T23:20:08.185Z,18.80
2023-01-19T23:24:37.043Z,16.30
2023-01-19T23:29:05.874Z,16.60
2023-01-19T23:50:49.585Z,18.40
2023-01-19T23:55:18.367Z,18.00
2023-01-19T23:59:47.099Z,16.20
